Oak View, California
Current Conditions -  °F | °C
As of 4:51 AM on Wednesday 22 Oct 2014 (Local Time) from KOXR Reporting Station
Clear Clear  
Wind Chill: 59°   Ceiling: Unl
Heat Index: 59°   Visibility: 10mi
Dew Point: 44°   Wind: 6mph
Humidity: 58%   Direction: 50°NE
Pressure: 29.87"   Gusts: NA
Location:  34.4°N, 119.3°W
Report Text: KOXR 221151Z AUTO 05005KT 10SM CLR 15/07 A2987 RMK AO2 SLP115 T01500067 10178 20144 53003
Loading
Personal Weather Stations






























Interactive Weather Map
Tropical Storm Tracking
New forecast layout! Learn more

10-Day Weather Forecast

Advertisements
Track Severe Weather on mobile